This is the latest recevied weather packets stored in our database for station/object KB9HUO. If no packets are shown the sender has not sent any weather packets the latest 10 day(s).
| Time | Temp. | Humidity | Pressure | Rain* | Wind** | Luminosity | Snow |
|---|---|---|---|---|---|---|---|
| 1777560956 | 12.22° C | 56% | 1018.9 hPa | 0 mm | - | 109 W/m² | - |
| 1777560653 | 12.22° C | 59% | 1018.9 hPa | 0 mm | - | 114 W/m² | - |
| 1777560351 | 11.67° C | 62% | 1019 hPa | 0 mm | - | 129 W/m² | - |
| 1777560048 | 11.67° C | 59% | 1018.9 hPa | 0 mm | - | 81 W/m² | - |
| 1777559744 | 11.11° C | 60% | 1019.2 hPa | 0 mm | - | 140 W/m² | - |
| 1777559441 | 11.11° C | 58% | 1019 hPa | 0 mm | - | 68 W/m² | - |
| 1777559138 | 11.11° C | 59% | 1019.2 hPa | 0 mm | - | 52 W/m² | - |
| 1777558838 | 11.11° C | 62% | 1019 hPa | 0 mm | - | 89 W/m² | - |
| 1777558534 | 11.11° C | 65% | 1019.1 hPa | 0 mm | - | 103 W/m² | - |
| 1777558230 | 10.56° C | 63% | 1018.9 hPa | 0 mm | - | 55 W/m² | - |
| 1777557926 | 10.56° C | 68% | 1018.9 hPa | 0 mm | - | 47 W/m² | - |
| 1777557624 | 10.56° C | 68% | 1018.8 hPa | 0 mm | - | 54 W/m² | - |
| 1777557320 | 10° C | 68% | 1018.9 hPa | 0 mm | - | 46 W/m² | - |
| 1777557016 | 10° C | 70% | 1018.9 hPa | 0 mm | - | 45 W/m² | - |
| 1777556712 | 10° C | 71% | 1018.8 hPa | 0 mm | - | 48 W/m² | - |
| 1777556409 | 10° C | 72% | 1019.3 hPa | 0 mm | - | 46 W/m² | - |
| 1777556103 | 10° C | 72% | 1019 hPa | 0 mm | - | 42 W/m² | - |
| 1777555803 | 9.44° C | 76% | 1019 hPa | 0 mm | - | 42 W/m² | - |
| 1777555500 | 9.44° C | 74% | 1018.9 hPa | 0 mm | - | 45 W/m² | - |
| 1777555196 | 8.89° C | 74% | 1018.9 hPa | 0 mm | - | 40 W/m² | - |
| 1777554894 | 8.89° C | 76% | 1018.9 hPa | 0 mm | - | 56 W/m² | - |
| 1777554590 | 8.89° C | 79% | 1018.6 hPa | 0 mm | - | 38 W/m² | - |
| 1777554287 | 8.89° C | 79% | 1018.7 hPa | 0 mm | - | 43 W/m² | - |
| 1777553984 | 8.33° C | 79% | 1018.9 hPa | 0 mm | - | 36 W/m² | - |
| 1777553681 | 8.33° C | 81% | 1018.8 hPa | 0 mm | - | 34 W/m² | - |
* Rain latest hour (hover to see other rain measurements)
** Current wind speed in m/s (hover to see current wind gust speed)